Time;durP1;ratioP1;P1;durP2;ratioP2;P2;SDS_P1;SDS_P2;PMS_P1;PMS_P2;Temp;Humidity;BMP_temperature;BMP_pressure;BME280_temperature;BME280_humidity;BME280_pressure;Samples;Min_cycle;Max_cycle;Signal;HPM_P1;HPM_P2
2022/06/04 00:00:13;;;;;;;0.00;0.00;;;;;;;;;;5038858;28;99580;-74
2022/06/04 00:02:40;;;;;;;0.00;0.00;;;;;;;;;;5032188;28;98280;-74
2022/06/04 00:05:07;;;;;;;0.00;0.00;;;;;;;;;;5017767;28;101549;-73
2022/06/04 00:07:34;;;;;;;0.00;0.00;;;;;;;;;;5034976;28;99727;-74
2022/06/04 00:15:33;;;;;;;0.00;0.00;;;;;;;;;;4995013;28;99939;-73
2022/06/04 00:18:00;;;;;;;0.10;0.10;;;;;;;;;;4995354;28;98412;-74
2022/06/04 00:20:26;;;;;;;0.00;0.00;;;;;;;;;;4996433;28;99490;-73
2022/06/04 00:22:57;;;;;;;0.00;0.00;;;;;;;;;;4997450;28;99553;-73
2022/06/04 00:25:24;;;;;;;0.00;0.00;;;;;;;;;;4995430;28;99651;-74
2022/06/04 00:27:51;;;;;;;0.00;0.00;;;;;;;;;;4995428;28;98949;-73
2022/06/04 00:30:17;;;;;;;0.00;0.00;;;;;;;;;;4994305;28;98343;-73
2022/06/04 00:32:44;;;;;;;0.08;0.08;;;;;;;;;;4995525;28;98637;-73
2022/06/04 00:35:10;;;;;;;0.00;0.00;;;;;;;;;;4995252;28;99338;-74
2022/06/04 00:37:37;;;;;;;0.00;0.00;;;;;;;;;;4995949;28;97682;-73
2022/06/04 00:40:04;;;;;;;0.00;0.00;;;;;;;;;;4995453;28;98868;-73
2022/06/04 00:42:31;;;;;;;0.00;0.00;;;;;;;;;;4994793;28;99795;-73
2022/06/04 00:45:16;;;;;;;0.00;0.00;;;;;;;;;;4996926;28;99213;-73
2022/06/04 00:47:42;;;;;;;0.00;0.00;;;;;;;;;;4994829;28;99623;-73
2022/06/04 00:50:09;;;;;;;0.10;0.10;;;;;;;;;;4995152;28;98309;-73
2022/06/04 00:52:39;;;;;;;0.00;0.00;;;;;;;;;;4995056;28;100022;-72
2022/06/04 00:55:06;;;;;;;0.08;0.08;;;;;;;;;;4993387;28;99472;-73
2022/06/04 00:57:51;;;;;;;0.00;0.00;;;;;;;;;;4994470;28;98299;-74
2022/06/04 01:00:34;;;;;;;0.00;0.00;;;;;;;;;;4995058;28;99779;-73
2022/06/04 01:03:20;;;;;;;0.00;0.00;;;;;;;;;;4995061;28;98942;-74
2022/06/04 01:06:01;;;;;;;0.10;0.10;;;;;;;;;;4994577;28;98463;-73
2022/06/04 01:08:37;;;;;;;0.50;0.50;;;;;;;;;;4998045;28;99794;-73
2022/06/04 01:11:16;;;;;;;0.00;0.00;;;;;;;;;;5014388;28;99097;-73
2022/06/04 01:14:05;;;;;;;0.00;0.00;;;;;;;;;;5018607;27;99453;-74
2022/06/04 01:16:47;;;;;;;0.00;0.00;;;;;;;;;;5013838;28;101288;-74
2022/06/04 01:19:30;;;;;;;0.00;0.00;;;;;;;;;;5014810;28;98350;-73
2022/06/04 01:21:56;;;;;;;0.00;0.00;;;;;;;;;;5014807;28;98954;-73
2022/06/04 01:24:40;;;;;;;0.00;0.00;;;;;;;;;;5013995;28;99650;-74
2022/06/04 01:27:15;;;;;;;0.00;0.00;;;;;;;;;;5014330;28;98556;-74
2022/06/04 01:29:48;;;;;;;0.00;0.00;;;;;;;;;;5017621;28;99406;-74
2022/06/04 01:32:21;;;;;;;0.03;0.03;;;;;;;;;;5014484;28;98329;-74
2022/06/04 01:34:58;;;;;;;0.20;0.20;;;;;;;;;;5014423;28;98922;-74
2022/06/04 01:37:34;;;;;;;0.20;0.20;;;;;;;;;;5013446;28;99805;-75
2022/06/04 01:42:48;;;;;;;0.00;0.00;;;;;;;;;;5013989;28;99539;-74
2022/06/04 01:45:16;;;;;;;0.00;0.00;;;;;;;;;;5013661;28;99823;-74
2022/06/04 01:47:45;;;;;;;0.00;0.00;;;;;;;;;;5013889;28;98532;-73
2022/06/04 01:50:13;;;;;;;0.00;0.00;;;;;;;;;;5014233;28;99606;-74
2022/06/04 01:52:40;;;;;;;0.00;0.00;;;;;;;;;;5014992;28;99733;-74
2022/06/04 01:55:07;;;;;;;0.00;0.00;;;;;;;;;;5009848;28;98591;-73
2022/06/04 01:57:46;;;;;;;0.00;0.00;;;;;;;;;;5013592;28;99856;-74
2022/06/04 02:00:18;;;;;;;0.00;0.00;;;;;;;;;;5011238;28;99621;-74
2022/06/04 02:02:57;;;;;;;0.00;0.00;;;;;;;;;;5013280;28;98989;-74
2022/06/04 02:05:27;;;;;;;0.00;0.00;;;;;;;;;;5012843;28;99696;-73
2022/06/04 02:07:54;;;;;;;0.00;0.00;;;;;;;;;;5014170;28;98310;-73
2022/06/04 02:10:25;;;;;;;0.00;0.00;;;;;;;;;;5027627;28;99264;-74
2022/06/04 02:12:53;;;;;;;0.20;0.20;;;;;;;;;;5032699;28;100309;-73
2022/06/04 02:15:21;;;;;;;0.00;0.00;;;;;;;;;;5036434;28;98430;-74
2022/06/04 02:17:49;;;;;;;0.00;0.00;;;;;;;;;;5033313;28;99761;-74
2022/06/04 02:20:16;;;;;;;0.80;0.25;;;;;;;;;;5034148;28;97465;-73
2022/06/04 02:22:42;;;;;;;0.10;0.10;;;;;;;;;;5033262;28;99022;-73
2022/06/04 02:25:10;;;;;;;0.00;0.00;;;;;;;;;;5015489;28;99624;-74
2022/06/04 02:27:37;;;;;;;0.00;0.00;;;;;;;;;;5033161;28;99293;-73
2022/06/04 02:30:04;;;;;;;0.00;0.00;;;;;;;;;;5033336;28;99993;-73
2022/06/04 02:32:49;;;;;;;0.00;0.00;;;;;;;;;;5033295;28;99183;-74
2022/06/04 02:35:21;;;;;;;0.00;0.00;;;;;;;;;;5033252;28;98328;-74
2022/06/04 02:37:47;;;;;;;0.00;0.00;;;;;;;;;;5001853;28;100826;-74
2022/06/04 02:40:20;;;;;;;0.00;0.00;;;;;;;;;;5015909;28;98437;-74
2022/06/04 02:43:17;;;;;;;0.00;0.00;;;;;;;;;;5033537;28;99302;-74
2022/06/04 02:45:48;;;;;;;0.00;0.00;;;;;;;;;;5012091;28;99373;-73
2022/06/04 02:48:18;;;;;;;0.00;0.00;;;;;;;;;;5032842;28;98361;-74
2022/06/04 02:50:47;;;;;;;0.00;0.00;;;;;;;;;;5033110;28;99293;-74
2022/06/04 02:53:15;;;;;;;0.10;0.10;;;;;;;;;;5031989;28;100255;-74
2022/06/04 02:55:45;;;;;;;0.00;0.00;;;;;;;;;;5032987;28;99335;-74
2022/06/04 02:58:14;;;;;;;0.00;0.00;;;;;;;;;;5033137;28;98441;-74
2022/06/04 03:00:46;;;;;;;0.00;0.00;;;;;;;;;;5036227;28;100140;-74
2022/06/04 03:03:13;;;;;;;0.00;0.00;;;;;;;;;;5032864;28;99884;-75
2022/06/04 03:05:49;;;;;;;0.00;0.00;;;;;;;;;;5032723;28;99706;-74
2022/06/04 03:08:15;;;;;;;0.00;0.00;;;;;;;;;;5032786;28;98649;-74
2022/06/04 03:10:42;;;;;;;0.00;0.00;;;;;;;;;;5033370;28;98908;-73
2022/06/04 03:13:08;;;;;;;0.00;0.00;;;;;;;;;;5032416;28;99818;-74
2022/06/04 03:15:35;;;;;;;0.05;0.05;;;;;;;;;;5033053;28;98482;-74
2022/06/04 03:18:01;;;;;;;0.00;0.00;;;;;;;;;;5032401;28;99300;-73
2022/06/04 03:20:28;;;;;;;0.00;0.00;;;;;;;;;;5032566;28;99559;-73
2022/06/04 03:22:54;;;;;;;0.00;0.00;;;;;;;;;;5035439;28;98265;-73
2022/06/04 03:25:21;;;;;;;0.00;0.00;;;;;;;;;;5032338;28;99816;-73
2022/06/04 03:27:47;;;;;;;0.00;0.00;;;;;;;;;;5032894;28;98410;-73
2022/06/04 03:30:14;;;;;;;0.00;0.00;;;;;;;;;;5032274;28;99344;-74
2022/06/04 03:32:41;;;;;;;0.10;0.10;;;;;;;;;;5032334;28;99777;-72
2022/06/04 03:35:08;;;;;;;0.00;0.00;;;;;;;;;;5033214;28;97596;-73
2022/06/04 03:37:35;;;;;;;0.00;0.00;;;;;;;;;;5032437;28;99481;-74
2022/06/04 03:40:03;;;;;;;0.00;0.00;;;;;;;;;;5032380;28;99471;-74
2022/06/04 03:42:29;;;;;;;0.00;0.00;;;;;;;;;;5035422;28;99176;-73
2022/06/04 03:44:56;;;;;;;0.00;0.00;;;;;;;;;;5032067;28;99559;-74
2022/06/04 03:47:22;;;;;;;0.00;0.00;;;;;;;;;;5032439;28;98424;-74
2022/06/04 03:49:48;;;;;;;0.00;0.00;;;;;;;;;;5014568;28;100810;-74
2022/06/04 03:52:15;;;;;;;0.00;0.00;;;;;;;;;;5013679;28;101082;-74
2022/06/04 03:54:54;;;;;;;0.00;0.00;;;;;;;;;;5032220;28;98554;-75
2022/06/04 03:57:45;;;;;;;0.00;0.00;;;;;;;;;;5032317;28;99491;-74
2022/06/04 04:00:17;;;;;;;0.00;0.00;;;;;;;;;;5032738;28;99137;-74
2022/06/04 04:02:45;;;;;;;0.15;0.15;;;;;;;;;;5032388;28;98641;-74
2022/06/04 04:05:13;;;;;;;0.00;0.00;;;;;;;;;;5036905;27;99182;-74
2022/06/04 04:07:40;;;;;;;0.00;0.00;;;;;;;;;;5035277;28;99566;-74
2022/06/04 04:10:07;;;;;;;0.00;0.00;;;;;;;;;;5035369;28;100583;-74
2022/06/04 04:12:34;;;;;;;0.00;0.00;;;;;;;;;;5035503;28;98561;-74
2022/06/04 04:15:00;;;;;;;0.00;0.00;;;;;;;;;;5037870;28;98448;-75
2022/06/04 04:17:27;;;;;;;0.00;0.00;;;;;;;;;;5036009;28;99610;-74
2022/06/04 04:19:53;;;;;;;0.03;0.03;;;;;;;;;;5034915;28;100061;-75
2022/06/04 04:22:19;;;;;;;0.00;0.00;;;;;;;;;;5035506;28;98336;-74
2022/06/04 04:24:46;;;;;;;0.00;0.00;;;;;;;;;;5035990;28;99330;-74
2022/06/04 04:27:12;;;;;;;0.00;0.00;;;;;;;;;;5038587;28;99987;-74
2022/06/04 04:29:39;;;;;;;0.00;0.00;;;;;;;;;;5034946;28;99460;-74
2022/06/04 04:32:06;;;;;;;0.10;0.10;;;;;;;;;;5034198;28;100281;-74
2022/06/04 04:34:32;;;;;;;0.00;0.00;;;;;;;;;;5015100;28;98305;-75
2022/06/04 04:36:59;;;;;;;0.13;0.13;;;;;;;;;;5035335;28;98690;-74
2022/06/04 04:39:26;;;;;;;0.00;0.00;;;;;;;;;;5034893;28;100072;-74
2022/06/04 04:41:53;;;;;;;0.00;0.00;;;;;;;;;;5035288;28;98579;-74
2022/06/04 04:44:19;;;;;;;0.00;0.00;;;;;;;;;;5034959;28;98935;-75
2022/06/04 04:46:48;;;;;;;0.00;0.00;;;;;;;;;;5034916;28;99902;-74
2022/06/04 04:49:14;;;;;;;0.00;0.00;;;;;;;;;;5038957;28;97621;-74
2022/06/04 04:51:41;;;;;;;0.00;0.00;;;;;;;;;;5034726;28;99948;-74
2022/06/04 04:54:07;;;;;;;0.00;0.00;;;;;;;;;;5017546;28;98365;-74
2022/06/04 04:56:34;;;;;;;0.00;0.00;;;;;;;;;;5034656;28;99308;-74
2022/06/04 04:59:00;;;;;;;0.35;0.35;;;;;;;;;;5034065;28;99570;-74
2022/06/04 05:01:27;;;;;;;0.00;0.00;;;;;;;;;;5035183;28;98471;-73
2022/06/04 05:03:54;;;;;;;0.00;0.00;;;;;;;;;;5035048;28;99174;-74
2022/06/04 05:06:28;;;;;;;1.05;0.35;;;;;;;;;;5016564;28;102735;-73
2022/06/04 05:08:54;;;;;;;0.00;0.00;;;;;;;;;;5034618;28;98384;-74
2022/06/04 05:11:23;;;;;;;0.10;0.10;;;;;;;;;;5037569;28;99440;-74
2022/06/04 05:13:50;;;;;;;0.00;0.00;;;;;;;;;;5035149;28;97703;-73
2022/06/04 05:16:18;;;;;;;0.10;0.10;;;;;;;;;;5034096;27;99033;-74
2022/06/04 05:18:45;;;;;;;0.00;0.00;;;;;;;;;;5034199;28;99172;-74
2022/06/04 05:21:11;;;;;;;0.00;0.00;;;;;;;;;;5034135;28;99158;-74
2022/06/04 05:23:39;;;;;;;0.10;0.10;;;;;;;;;;5034573;28;99395;-74
2022/06/04 05:26:05;;;;;;;0.10;0.10;;;;;;;;;;5033863;28;99141;-74
2022/06/04 05:28:32;;;;;;;0.00;0.00;;;;;;;;;;5034542;28;99073;-74
2022/06/04 05:30:58;;;;;;;0.10;0.10;;;;;;;;;;5034377;28;99242;-74
2022/06/04 05:33:25;;;;;;;0.00;0.00;;;;;;;;;;5019258;28;101151;-74
2022/06/04 05:35:51;;;;;;;0.75;0.65;;;;;;;;;;5034501;28;99150;-75
2022/06/04 05:38:18;;;;;;;0.00;0.00;;;;;;;;;;5034391;28;98533;-74
2022/06/04 05:40:44;;;;;;;0.00;0.00;;;;;;;;;;5033951;28;98527;-74
2022/06/04 05:43:10;;;;;;;0.08;0.08;;;;;;;;;;5034182;28;99129;-74
2022/06/04 05:45:37;;;;;;;0.03;0.03;;;;;;;;;;5033586;28;100446;-73
2022/06/04 05:48:03;;;;;;;0.10;0.10;;;;;;;;;;5034173;28;98403;-75
2022/06/04 05:50:30;;;;;;;0.00;0.00;;;;;;;;;;5034212;28;99640;-73
2022/06/04 05:52:56;;;;;;;0.22;0.22;;;;;;;;;;5036866;28;99572;-74
2022/06/04 05:55:24;;;;;;;0.20;0.20;;;;;;;;;;5033776;28;99592;-74
2022/06/04 05:57:50;;;;;;;0.05;0.05;;;;;;;;;;5033738;28;99694;-74
2022/06/04 06:00:17;;;;;;;0.00;0.00;;;;;;;;;;5033896;28;98416;-74
2022/06/04 06:02:43;;;;;;;0.10;0.10;;;;;;;;;;5031622;28;98984;-74
2022/06/04 06:05:10;;;;;;;0.00;0.00;;;;;;;;;;5033172;28;100954;-74
2022/06/04 06:07:36;;;;;;;0.22;0.22;;;;;;;;;;5033536;28;98462;-74
2022/06/04 06:10:03;;;;;;;1.13;0.82;;;;;;;;;;5032908;28;99391;-74
2022/06/04 06:12:29;;;;;;;0.00;0.00;;;;;;;;;;5033365;28;99740;-73
2022/06/04 06:14:57;;;;;;;0.00;0.00;;;;;;;;;;5036869;28;98397;-74
2022/06/04 06:17:23;;;;;;;0.10;0.10;;;;;;;;;;5033391;28;99992;-75
2022/06/04 06:19:49;;;;;;;0.10;0.10;;;;;;;;;;5033874;28;98693;-74
2022/06/04 06:22:16;;;;;;;0.10;0.10;;;;;;;;;;5033495;28;99417;-74
2022/06/04 06:24:42;;;;;;;0.00;0.00;;;;;;;;;;5034610;28;99766;-74
2022/06/04 06:27:10;;;;;;;0.28;0.28;;;;;;;;;;5033411;28;97595;-73
2022/06/04 06:29:36;;;;;;;0.32;0.32;;;;;;;;;;5033721;28;98867;-73
2022/06/04 06:32:04;;;;;;;0.00;0.00;;;;;;;;;;5032921;28;99722;-74
2022/06/04 06:34:30;;;;;;;0.00;0.00;;;;;;;;;;5032944;28;99076;-75
2022/06/04 06:36:57;;;;;;;0.05;0.05;;;;;;;;;;5035937;28;100064;-74
2022/06/04 06:39:23;;;;;;;0.00;0.00;;;;;;;;;;5015544;28;98295;-74
2022/06/04 06:41:50;;;;;;;0.00;0.00;;;;;;;;;;5033330;28;99632;-73
2022/06/04 06:44:16;;;;;;;0.00;0.00;;;;;;;;;;5032863;28;99881;-74
2022/06/04 06:46:44;;;;;;;0.10;0.10;;;;;;;;;;5015299;28;99525;-74
2022/06/04 06:49:12;;;;;;;0.20;0.20;;;;;;;;;;5033148;28;99450;-73
2022/06/04 06:51:45;;;;;;;0.00;0.00;;;;;;;;;;5033210;28;99023;-74
2022/06/04 06:54:12;;;;;;;0.00;0.00;;;;;;;;;;5033046;28;98292;-73
2022/06/04 06:56:40;;;;;;;0.00;0.00;;;;;;;;;;5033246;28;99305;-73
2022/06/04 06:59:07;;;;;;;0.00;0.00;;;;;;;;;;5018101;28;100024;-73
2022/06/04 07:01:34;;;;;;;0.00;0.00;;;;;;;;;;5015158;28;101316;-73
2022/06/04 07:04:02;;;;;;;0.00;0.00;;;;;;;;;;5032414;28;99948;-72
2022/06/04 07:06:33;;;;;;;0.00;0.00;;;;;;;;;;5033093;28;98363;-72
2022/06/04 07:09:00;;;;;;;0.00;0.00;;;;;;;;;;5032745;28;99749;-73
2022/06/04 07:11:27;;;;;;;0.10;0.10;;;;;;;;;;5032481;28;99516;-73
2022/06/04 07:13:53;;;;;;;0.10;0.10;;;;;;;;;;5033155;28;98327;-71
2022/06/04 07:16:20;;;;;;;0.00;0.00;;;;;;;;;;5033531;28;99074;-74
2022/06/04 07:18:47;;;;;;;0.10;0.10;;;;;;;;;;5032290;28;99177;-73
2022/06/04 07:21:14;;;;;;;0.10;0.10;;;;;;;;;;5036243;28;99082;-73
2022/06/04 07:23:40;;;;;;;0.00;0.00;;;;;;;;;;5032133;28;100462;-78
2022/06/04 07:26:07;;;;;;;0.20;0.20;;;;;;;;;;5032965;28;98417;-74
2022/06/04 07:28:36;;;;;;;0.08;0.08;;;;;;;;;;4980375;28;99212;-74
2022/06/04 07:31:05;;;;;;;0.10;0.10;;;;;;;;;;5031978;28;99267;-72
2022/06/04 07:33:32;;;;;;;0.08;0.08;;;;;;;;;;5032748;28;98456;-74
2022/06/04 07:35:59;;;;;;;0.10;0.10;;;;;;;;;;5032787;28;99632;-71
2022/06/04 07:38:25;;;;;;;0.10;0.10;;;;;;;;;;5032695;28;99660;-72
2022/06/04 07:40:55;;;;;;;0.05;0.05;;;;;;;;;;5036745;28;98279;-72
2022/06/04 07:43:21;;;;;;;0.00;0.00;;;;;;;;;;5038958;28;98403;-74
2022/06/04 07:45:48;;;;;;;0.13;0.13;;;;;;;;;;5018226;28;100330;-72
2022/06/04 07:48:17;;;;;;;0.10;0.10;;;;;;;;;;5035861;28;99308;-73
2022/06/04 07:50:44;;;;;;;0.00;0.00;;;;;;;;;;5035691;28;99594;-72
2022/06/04 07:53:10;;;;;;;0.10;0.10;;;;;;;;;;5036103;28;99160;-72
2022/06/04 07:55:38;;;;;;;0.20;0.20;;;;;;;;;;5018241;28;99414;-72
2022/06/04 07:58:04;;;;;;;0.30;0.30;;;;;;;;;;5035686;28;99504;-72
2022/06/04 08:00:31;;;;;;;0.10;0.10;;;;;;;;;;5035649;28;98405;-72
2022/06/04 08:02:57;;;;;;;0.05;0.05;;;;;;;;;;5038982;28;99406;-73
2022/06/04 08:05:24;;;;;;;0.10;0.10;;;;;;;;;;5036014;28;97592;-73
2022/06/04 08:07:54;;;;;;;0.10;0.10;;;;;;;;;;5017785;28;99796;-74
2022/06/04 08:10:20;;;;;;;0.10;0.10;;;;;;;;;;5017189;28;101202;-73
2022/06/04 08:12:51;;;;;;;0.00;0.00;;;;;;;;;;5034979;28;99104;-73
2022/06/04 08:15:17;;;;;;;0.43;0.43;;;;;;;;;;5035824;28;100705;-73
2022/06/04 08:17:46;;;;;;;0.10;0.10;;;;;;;;;;5033740;27;100359;-74
2022/06/04 08:20:13;;;;;;;0.10;0.10;;;;;;;;;;5035477;27;98405;-73
2022/06/04 08:22:40;;;;;;;0.10;0.10;;;;;;;;;;5035154;27;98931;-72
2022/06/04 08:25:07;;;;;;;1.08;0.90;;;;;;;;;;5037618;27;99789;-74
2022/06/04 08:27:34;;;;;;;0.35;0.17;;;;;;;;;;5016623;27;99524;-74
2022/06/04 08:30:00;;;;;;;0.10;0.10;;;;;;;;;;5037373;27;98774;-72
2022/06/04 08:32:27;;;;;;;0.05;0.05;;;;;;;;;;5035617;27;98536;-73
2022/06/04 08:34:54;;;;;;;1.17;0.68;;;;;;;;;;5034851;27;99558;-74
2022/06/04 08:37:23;;;;;;;0.00;0.00;;;;;;;;;;5033671;27;100422;-73
2022/06/04 08:39:49;;;;;;;0.10;0.10;;;;;;;;;;5038069;27;98334;-73
2022/06/04 08:42:24;;;;;;;0.20;0.20;;;;;;;;;;5034921;27;99047;-70
2022/06/04 08:44:52;;;;;;;0.10;0.10;;;;;;;;;;5016114;27;100432;-69
2022/06/04 08:47:33;;;;;;;0.10;0.10;;;;;;;;;;5037999;27;98417;-74
2022/06/04 08:50:02;;;;;;;0.17;0.17;;;;;;;;;;5033585;27;99591;-69
2022/06/04 08:52:38;;;;;;;0.10;0.10;;;;;;;;;;5033811;27;98409;-69
2022/06/04 08:58:09;;;;;;;0.20;0.20;;;;;;;;;;5037302;27;99582;-73
2022/06/04 09:00:43;;;;;;;0.10;0.10;;;;;;;;;;5016575;27;98383;-76
2022/06/04 09:03:09;;;;;;;0.10;0.10;;;;;;;;;;5033765;27;99199;-74
2022/06/04 09:06:00;;;;;;;0.10;0.10;;;;;;;;;;5033881;27;99655;-76
2022/06/04 09:08:30;;;;;;;0.00;0.00;;;;;;;;;;5033727;27;99680;-75
2022/06/04 09:10:58;;;;;;;0.10;0.10;;;;;;;;;;5036858;27;99465;-76
2022/06/04 09:13:27;;;;;;;0.00;0.00;;;;;;;;;;5033959;27;99374;-76
2022/06/04 09:15:57;;;;;;;0.10;0.10;;;;;;;;;;5034046;27;99250;-76
2022/06/04 09:18:33;;;;;;;0.20;0.20;;;;;;;;;;5037198;27;99584;-76
2022/06/04 09:21:01;;;;;;;0.10;0.10;;;;;;;;;;5038632;27;99120;-74
2022/06/04 09:23:34;;;;;;;0.13;0.13;;;;;;;;;;5034216;27;98638;-74
2022/06/04 09:26:07;;;;;;;0.10;0.10;;;;;;;;;;5033134;27;99848;-73
2022/06/04 09:28:34;;;;;;;0.10;0.10;;;;;;;;;;5033464;27;99949;-74
2022/06/04 09:31:08;;;;;;;0.10;0.10;;;;;;;;;;5034169;28;100411;-75
2022/06/04 09:33:46;;;;;;;0.10;0.10;;;;;;;;;;5036413;27;100063;-74
2022/06/04 09:36:15;;;;;;;0.10;0.10;;;;;;;;;;5033352;27;98542;-74
2022/06/04 09:38:50;;;;;;;0.30;0.30;;;;;;;;;;5033035;27;99165;-74
2022/06/04 09:41:19;;;;;;;0.10;0.10;;;;;;;;;;5033998;27;98682;-75
2022/06/04 09:43:58;;;;;;;0.20;0.20;;;;;;;;;;4975360;28;99075;-74
2022/06/04 09:46:25;;;;;;;1.20;1.10;;;;;;;;;;4972065;28;99048;-74
2022/06/04 09:48:52;;;;;;;0.10;0.10;;;;;;;;;;4971247;28;98448;-74
2022/06/04 09:51:21;;;;;;;0.20;0.20;;;;;;;;;;4971851;28;100783;-75
2022/06/04 09:53:49;;;;;;;0.08;0.08;;;;;;;;;;4970901;28;99941;-74
2022/06/04 09:56:34;;;;;;;0.10;0.10;;;;;;;;;;4974368;28;98590;-75
2022/06/04 09:59:08;;;;;;;0.10;0.10;;;;;;;;;;4975093;28;99672;-77
2022/06/04 10:01:34;;;;;;;0.22;0.22;;;;;;;;;;4971113;28;98468;-78
2022/06/04 10:04:21;;;;;;;0.20;0.20;;;;;;;;;;4970504;28;99301;-78
2022/06/04 10:06:47;;;;;;;0.10;0.10;;;;;;;;;;4971451;28;99189;-79
2022/06/04 10:12:07;;;;;;;;;;;;;;;;;;4976435;28;99451;-77
2022/06/04 10:14:38;;;;;;;0.10;0.10;;;;;;;;;;4993514;27;128752;-77
2022/06/04 10:17:17;;;;;;;0.10;0.10;;;;;;;;;;5036495;27;98326;-77
2022/06/04 10:19:52;;;;;;;0.10;0.10;;;;;;;;;;5032397;27;99697;-77
2022/06/04 10:22:18;;;;;;;0.15;0.10;;;;;;;;;;5033025;27;99061;-76
2022/06/04 10:24:49;;;;;;;0.10;0.10;;;;;;;;;;5015227;27;99113;-76
2022/06/04 10:27:34;;;;;;;0.20;0.20;;;;;;;;;;5032638;27;99376;-75
2022/06/04 10:30:06;;;;;;;0.22;0.22;;;;;;;;;;5033070;27;98319;-74
2022/06/04 10:32:43;;;;;;;0.10;0.10;;;;;;;;;;5017670;28;100106;-76
2022/06/04 10:35:25;;;;;;;0.10;0.10;;;;;;;;;;5038914;27;99968;-75
2022/06/04 10:38:01;;;;;;;0.10;0.10;;;;;;;;;;5034254;27;97929;-76
2022/06/04 10:40:30;;;;;;;0.00;0.00;;;;;;;;;;5036039;27;98595;-75
2022/06/04 10:43:05;;;;;;;0.38;0.20;;;;;;;;;;5032982;27;98521;-77
2022/06/04 10:45:37;;;;;;;0.10;0.10;;;;;;;;;;5032551;27;101008;-74
2022/06/04 10:48:11;;;;;;;0.10;0.10;;;;;;;;;;5033677;27;99853;-78
2022/06/04 10:54:02;;;;;;;0.10;0.10;;;;;;;;;;5032036;27;99368;-77
2022/06/04 10:56:41;;;;;;;0.25;0.25;;;;;;;;;;5019067;27;99884;-77
2022/06/04 10:59:11;;;;;;;0.17;0.17;;;;;;;;;;5034315;27;98393;-74
2022/06/04 11:02:07;;;;;;;0.55;0.55;;;;;;;;;;5032727;27;99236;-77
2022/06/04 11:04:33;;;;;;;0.20;0.20;;;;;;;;;;5015087;27;98499;-79
2022/06/04 11:07:07;;;;;;;0.65;0.65;;;;;;;;;;5032678;27;98411;-77
2022/06/04 11:09:36;;;;;;;0.10;0.10;;;;;;;;;;5033980;27;100198;-75
2022/06/04 11:12:04;;;;;;;0.10;0.10;;;;;;;;;;5032091;27;99201;-78
2022/06/04 11:14:35;;;;;;;0.20;0.20;;;;;;;;;;5034137;27;100186;-78
2022/06/04 11:17:06;;;;;;;0.10;0.10;;;;;;;;;;5017876;28;99974;-77
2022/06/04 11:19:33;;;;;;;;;;;;;;;;;;5038919;27;99458;-76
2022/06/04 11:22:03;;;;;;;0.10;0.10;;;;;;;;;;5035281;27;124303;-77
2022/06/04 11:24:38;;;;;;;0.15;0.15;;;;;;;;;;5037046;27;99401;-74
2022/06/04 11:27:20;;;;;;;0.10;0.10;;;;;;;;;;5022820;28;98482;-76
2022/06/04 11:29:48;;;;;;;0.10;0.10;;;;;;;;;;5037789;28;98968;-75
2022/06/04 11:32:33;;;;;;;0.03;0.03;;;;;;;;;;5037590;28;99175;-76
2022/06/04 11:35:12;;;;;;;0.10;0.10;;;;;;;;;;5037470;28;99791;-77
2022/06/04 11:37:57;;;;;;;0.10;0.10;;;;;;;;;;5000288;28;100529;-79
2022/06/04 11:40:23;;;;;;;0.95;0.43;;;;;;;;;;5038450;28;98400;-75
2022/06/04 11:42:59;;;;;;;0.20;0.20;;;;;;;;;;5038221;28;99986;-79
2022/06/04 11:45:39;;;;;;;0.90;0.20;;;;;;;;;;5037458;28;100338;-76
2022/06/04 11:48:16;;;;;;;0.10;0.10;;;;;;;;;;5036995;28;98487;-76
2022/06/04 11:50:52;;;;;;;0.17;0.17;;;;;;;;;;5039075;28;99425;-77
2022/06/04 11:53:20;;;;;;;0.30;0.20;;;;;;;;;;5035922;28;98305;-76
2022/06/04 11:55:55;;;;;;;0.10;0.10;;;;;;;;;;5019055;28;99394;-78
2022/06/04 11:58:37;;;;;;;0.10;0.10;;;;;;;;;;5035547;28;100064;-77
2022/06/04 12:01:09;;;;;;;0.10;0.10;;;;;;;;;;5035849;28;98445;-78
2022/06/04 12:03:43;;;;;;;0.10;0.10;;;;;;;;;;5035506;28;99328;-77
2022/06/04 12:06:16;;;;;;;0.13;0.13;;;;;;;;;;5035530;28;99554;-76
2022/06/04 12:08:56;;;;;;;0.10;0.10;;;;;;;;;;5034857;28;98477;-78
2022/06/04 12:11:35;;;;;;;0.20;0.20;;;;;;;;;;5038705;28;99371;-77
2022/06/04 12:14:11;;;;;;;0.10;0.10;;;;;;;;;;5035702;28;98424;-77
2022/06/04 12:16:40;;;;;;;0.10;0.10;;;;;;;;;;5018316;28;99338;-76
2022/06/04 12:24:15;;;;;;;0.20;0.20;;;;;;;;;;5034852;28;99242;-78
2022/06/04 12:24:59;;;;;;;0.55;0.30;;;;;;;;;;5034639;27;98843;-76
2022/06/04 12:27:30;;;;;;;0.22;0.22;;;;;;;;;;5018161;28;99489;-76
2022/06/04 12:29:58;;;;;;;0.10;0.10;;;;;;;;;;5034795;28;99059;-76
2022/06/04 12:32:30;;;;;;;0.10;0.10;;;;;;;;;;5035349;28;99522;-77
2022/06/04 12:35:03;;;;;;;0.10;0.10;;;;;;;;;;5038296;28;99777;-76
2022/06/04 12:37:33;;;;;;;0.10;0.10;;;;;;;;;;5036701;28;99383;-78
2022/06/04 12:40:14;;;;;;;0.17;0.17;;;;;;;;;;5037517;28;99626;-78
2022/06/04 12:42:43;;;;;;;0.10;0.10;;;;;;;;;;5035639;28;98321;-80
2022/06/04 12:45:29;;;;;;;9.63;0.52;;;;;;;;;;5035166;28;99004;-80
2022/06/04 12:47:57;;;;;;;0.15;0.15;;;;;;;;;;5033750;27;99045;-78
2022/06/04 12:50:26;;;;;;;0.10;0.10;;;;;;;;;;5034795;27;98455;-77
2022/06/04 12:52:59;;;;;;;0.10;0.10;;;;;;;;;;5034368;27;99276;-75
2022/06/04 12:55:25;;;;;;;0.10;0.10;;;;;;;;;;5033350;27;100356;-77
2022/06/04 12:57:54;;;;;;;0.35;0.35;;;;;;;;;;5020437;27;98296;-75
2022/06/04 13:00:24;;;;;;;0.10;0.10;;;;;;;;;;5033865;27;99261;-75
2022/06/04 13:03:21;;;;;;;0.10;0.10;;;;;;;;;;5034097;27;98429;-76
2022/06/04 13:05:58;;;;;;;0.20;0.20;;;;;;;;;;5017314;27;99708;-79
2022/06/04 13:08:28;;;;;;;0.30;0.30;;;;;;;;;;5015787;27;102343;-74
2022/06/04 13:10:54;;;;;;;0.10;0.10;;;;;;;;;;5035180;27;98638;-74
2022/06/04 13:13:25;;;;;;;0.25;0.25;;;;;;;;;;5033979;27;99352;-74
2022/06/04 13:15:56;;;;;;;0.35;0.35;;;;;;;;;;5015663;27;101806;-74
2022/06/04 13:18:28;;;;;;;0.30;0.30;;;;;;;;;;5016632;27;98886;-75
2022/06/04 13:20:57;;;;;;;0.10;0.10;;;;;;;;;;5019681;27;100846;-74
2022/06/04 13:23:34;;;;;;;0.20;0.20;;;;;;;;;;5033884;27;98453;-74
2022/06/04 13:26:19;;;;;;;2.20;1.15;;;;;;;;;;5033836;27;99309;-75
2022/06/04 13:28:49;;;;;;;0.40;0.40;;;;;;;;;;5034107;27;99404;-77
2022/06/04 13:31:18;;;;;;;0.10;0.10;;;;;;;;;;5035931;27;98476;-74
2022/06/04 13:33:47;;;;;;;0.10;0.10;;;;;;;;;;5015804;28;102180;-75
2022/06/04 13:36:15;;;;;;;0.17;0.17;;;;;;;;;;5032866;27;99996;-73
2022/06/04 13:38:42;;;;;;;0.10;0.10;;;;;;;;;;5016720;27;97812;-74
2022/06/04 13:44:22;;;;;;;0.20;0.20;;;;;;;;;;5036604;27;100057;-72
2022/06/04 13:46:49;;;;;;;0.10;0.10;;;;;;;;;;5033029;27;99675;-75
2022/06/04 13:49:22;;;;;;;0.10;0.10;;;;;;;;;;5034739;27;99252;-73
2022/06/04 13:51:53;;;;;;;0.20;0.20;;;;;;;;;;5015470;27;98616;-72
2022/06/04 13:54:40;;;;;;;0.20;0.20;;;;;;;;;;5033698;27;98756;-70
2022/06/04 13:57:15;;;;;;;0.10;0.10;;;;;;;;;;5021163;27;102065;-70
2022/06/04 13:59:44;;;;;;;0.10;0.10;;;;;;;;;;5033209;27;98847;-69
2022/06/04 14:02:16;;;;;;;0.20;0.20;;;;;;;;;;5033536;27;99355;-70
2022/06/04 14:07:33;;;;;;;0.20;0.20;;;;;;;;;;5036454;27;98330;-70
2022/06/04 14:09:59;;;;;;;0.10;0.10;;;;;;;;;;5032366;27;101352;-69
2022/06/04 14:12:46;;;;;;;0.10;0.10;;;;;;;;;;5032938;27;99192;-73
2022/06/04 14:15:32;;;;;;;0.15;0.15;;;;;;;;;;5008755;27;101937;-77
2022/06/04 14:18:04;;;;;;;0.10;0.10;;;;;;;;;;5032846;27;99040;-76
2022/06/04 14:20:31;;;;;;;0.30;0.10;;;;;;;;;;5037428;27;98417;-75
2022/06/04 14:23:17;;;;;;;0.20;0.20;;;;;;;;;;5033177;27;99133;-76
2022/06/04 14:25:47;;;;;;;0.17;0.17;;;;;;;;;;5032746;27;100113;-76
2022/06/04 14:28:32;;;;;;;0.10;0.10;;;;;;;;;;5036190;27;98429;-76
2022/06/04 14:31:02;;;;;;;0.10;0.10;;;;;;;;;;5033165;27;99328;-75
2022/06/04 14:33:29;;;;;;;0.10;0.10;;;;;;;;;;5032953;27;98565;-77
2022/06/04 14:35:57;;;;;;;0.10;0.10;;;;;;;;;;5032946;27;99436;-75
2022/06/04 14:38:24;;;;;;;0.28;0.15;;;;;;;;;;5032083;27;100390;-75
2022/06/04 14:41:00;;;;;;;0.10;0.10;;;;;;;;;;5032377;27;98703;-75
2022/06/04 14:43:27;;;;;;;0.22;0.22;;;;;;;;;;5034820;27;98802;-76
2022/06/04 14:45:59;;;;;;;0.10;0.10;;;;;;;;;;5034226;27;98763;-75
2022/06/04 14:48:26;;;;;;;0.15;0.15;;;;;;;;;;5031815;27;99215;-74
2022/06/04 14:50:52;;;;;;;0.13;0.13;;;;;;;;;;5034844;27;99700;-75
2022/06/04 14:53:19;;;;;;;0.10;0.10;;;;;;;;;;5031947;27;98547;-75
2022/06/04 14:56:04;;;;;;;0.10;0.10;;;;;;;;;;5032920;27;99479;-74
2022/06/04 14:58:43;;;;;;;0.10;0.10;;;;;;;;;;5031404;27;101190;-74
2022/06/04 15:01:15;;;;;;;0.13;0.13;;;;;;;;;;5033976;27;98507;-74
2022/06/04 15:03:54;;;;;;;0.10;0.10;;;;;;;;;;5032082;27;99184;-74
2022/06/04 15:06:30;;;;;;;0.10;0.10;;;;;;;;;;5032057;27;99697;-74
2022/06/04 15:08:59;;;;;;;0.20;0.20;;;;;;;;;;5035808;27;98518;-75
2022/06/04 15:11:45;;;;;;;0.22;0.22;;;;;;;;;;5032166;27;99763;-73
2022/06/04 15:14:35;;;;;;;0.10;0.10;;;;;;;;;;5035245;27;100153;-74
2022/06/04 15:17:02;;;;;;;0.10;0.10;;;;;;;;;;5014789;28;99434;-74
2022/06/04 15:19:28;;;;;;;0.13;0.13;;;;;;;;;;5031006;27;99727;-75
2022/06/04 15:21:59;;;;;;;0.20;0.20;;;;;;;;;;5032653;27;98191;-74
2022/06/04 15:24:29;;;;;;;0.20;0.20;;;;;;;;;;5014201;28;102393;-75
2022/06/04 15:27:04;;;;;;;0.10;0.10;;;;;;;;;;5031876;27;99571;-74